Time;durP1;ratioP1;P1;durP2;ratioP2;P2;SDS_P1;SDS_P2;PMS_P1;PMS_P2;Temp;Humidity;BMP_temperature;BMP_pressure;BME280_temperature;BME280_humidity;BME280_pressure;Samples;Min_cycle;Max_cycle;Signal;HPM_P1;HPM_P2
2023/11/19 00:00:36;;;;;;;;;;;;;;;;;;5052587;28;19928;-63
2023/11/19 00:03:02;;;;;;;;;;;;;;;;;;5053292;28;19920;-64
2023/11/19 00:05:29;;;;;;;;;;;;;;;;;;5053696;28;20285;-63
2023/11/19 00:07:56;;;;;;;;;;;;;;;;;;5053420;28;20317;-63
2023/11/19 00:10:22;;;;;;;;;;;;;;;;;;5053536;28;19928;-64
2023/11/19 00:12:49;;;;;;;;;;;;;;;;;;5053519;28;19927;-63
2023/11/19 00:15:14;;;;;;;;;;;;;;;;;;5051984;28;19921;-64
2023/11/19 00:17:44;;;;;;;;;;;;;;;;;;5053380;28;19917;-64
2023/11/19 00:20:10;;;;;;;;;;;;;;;;;;5053193;28;20285;-63
2023/11/19 00:22:37;;;;;;;;;;;;;;;;;;5053369;28;19921;-64
2023/11/19 00:25:04;;;;;;;;;;;;;;;;;;5052730;28;19921;-63
2023/11/19 00:27:30;;;;;;;;;;;;;;;;;;5052972;28;19932;-63
2023/11/19 00:29:57;;;;;;;;;;;;;;;;;;5051963;28;19921;-63
2023/11/19 00:32:23;;;;;;;;;;;;;;;;;;5052884;28;19927;-63
2023/11/19 00:34:50;;;;;;;;;;;;;;;;;;5052817;28;19921;-63
2023/11/19 00:37:16;;;;;;;;;;;;;;;;;;5052826;28;19928;-62
2023/11/19 00:39:43;;;;;;;;;;;;;;;;;;5053241;28;19928;-62
2023/11/19 00:42:10;;;;;;;;;;;;;;;;;;5053213;28;19921;-63
2023/11/19 00:44:36;;;;;;;;;;;;;;;;;;5052243;28;19927;-62
2023/11/19 00:47:03;;;;;;;;;;;;;;;;;;5052672;28;20281;-62
2023/11/19 00:49:29;;;;;;;;;;;;;;;;;;5052747;28;19921;-62
2023/11/19 00:51:56;;;;;;;;;;;;;;;;;;5053163;28;19927;-62
2023/11/19 00:54:25;;;;;;;;;;;;;;;;;;5052796;28;19921;-63
2023/11/19 00:56:52;;;;;;;;;;;;;;;;;;5052866;28;19932;-63
2023/11/19 00:59:18;;;;;;;;;;;;;;;;;;5052323;28;19921;-62
2023/11/19 01:01:45;;;;;;;;;;;;;;;;;;5052921;28;19921;-63
2023/11/19 01:04:11;;;;;;;;;;;;;;;;;;5052845;28;19929;-63
2023/11/19 01:06:38;;;;;;;;;;;;;;;;;;5053080;28;20289;-62
2023/11/19 01:09:04;;;;;;;;;;;;;;;;;;5052964;28;19928;-63
2023/11/19 01:11:31;;;;;;;;;;;;;;;;;;5052689;28;19928;-62
2023/11/19 01:13:57;;;;;;;;;;;;;;;;;;5051821;28;19961;-63
2023/11/19 01:16:24;;;;;;;;;;;;;;;;;;5052370;28;19928;-63
2023/11/19 01:18:50;;;;;;;;;;;;;;;;;;5052712;28;19943;-62
2023/11/19 01:21:17;;;;;;;;;;;;;;;;;;5052929;28;19921;-62
2023/11/19 01:23:43;;;;;;;;;;;;;;;;;;5052064;28;19921;-62
2023/11/19 01:26:10;;;;;;;;;;;;;;;;;;5052833;28;19928;-62
2023/11/19 01:28:36;;;;;;;;;;;;;;;;;;5052314;28;19916;-62
2023/11/19 01:31:03;;;;;;;;;;;;;;;;;;5052587;28;19921;-62
2023/11/19 01:33:29;;;;;;;;;;;;;;;;;;5051552;28;19928;-62
2023/11/19 01:35:58;;;;;;;;;;;;;;;;;;5051368;28;19921;-63
2023/11/19 01:38:25;;;;;;;;;;;;;;;;;;5056184;28;19928;-62
2023/11/19 01:40:51;;;;;;;;;;;;;;;;;;5056133;28;19921;-62
2023/11/19 01:43:17;;;;;;;;;;;;;;;;;;5055782;28;20366;-63
2023/11/19 01:45:44;;;;;;;;;;;;;;;;;;5055819;28;20258;-64
2023/11/19 01:48:11;;;;;;;;;;;;;;;;;;5055679;28;19927;-62
2023/11/19 01:50:38;;;;;;;;;;;;;;;;;;5056088;28;19928;-63
2023/11/19 01:53:04;;;;;;;;;;;;;;;;;;5055840;28;19935;-63
2023/11/19 01:55:31;;;;;;;;;;;;;;;;;;5056073;28;19920;-62
2023/11/19 01:57:56;;;;;;;;;;;;;;;;;;5055398;28;19927;-63
2023/11/19 02:00:23;;;;;;;;;;;;;;;;;;5055149;28;19917;-63
2023/11/19 02:02:49;;;;;;;;;;;;;;;;;;5055710;28;19920;-64
2023/11/19 02:05:16;;;;;;;;;;;;;;;;;;5055825;28;19928;-64
2023/11/19 02:07:42;;;;;;;;;;;;;;;;;;5055766;28;19924;-63
2023/11/19 02:10:12;;;;;;;;;;;;;;;;;;5055933;28;19928;-63
2023/11/19 02:12:42;;;;;;;;;;;;;;;;;;5056040;28;19927;-65
2023/11/19 02:15:09;;;;;;;;;;;;;;;;;;5054213;28;19920;-64
2023/11/19 02:17:37;;;;;;;;;;;;;;;;;;5055645;28;19927;-63
2023/11/19 02:20:04;;;;;;;;;;;;;;;;;;5055581;28;19921;-64
2023/11/19 02:22:30;;;;;;;;;;;;;;;;;;5055361;28;19929;-64
2023/11/19 02:24:57;;;;;;;;;;;;;;;;;;5055498;28;19927;-64
2023/11/19 02:27:24;;;;;;;;;;;;;;;;;;5055516;28;19921;-64
2023/11/19 02:29:50;;;;;;;;;;;;;;;;;;5054700;28;19921;-64
2023/11/19 02:32:17;;;;;;;;;;;;;;;;;;5055110;28;19928;-63
2023/11/19 02:34:43;;;;;;;;;;;;;;;;;;5055152;28;20404;-64
2023/11/19 02:37:10;;;;;;;;;;;;;;;;;;5055411;28;20254;-64
2023/11/19 02:39:36;;;;;;;;;;;;;;;;;;5055306;28;19920;-63
2023/11/19 02:42:03;;;;;;;;;;;;;;;;;;5054056;28;20354;-64
2023/11/19 02:44:30;;;;;;;;;;;;;;;;;;5054665;28;19921;-64
2023/11/19 02:46:59;;;;;;;;;;;;;;;;;;5054989;28;19925;-64
2023/11/19 02:49:26;;;;;;;;;;;;;;;;;;5055290;28;19927;-64
2023/11/19 02:51:52;;;;;;;;;;;;;;;;;;5055353;28;19924;-64
2023/11/19 02:54:19;;;;;;;;;;;;;;;;;;5055105;28;19920;-64
2023/11/19 02:56:47;;;;;;;;;;;;;;;;;;5055110;28;19921;-64
2023/11/19 02:59:27;;;;;;;;;;;;;;;;;;5054323;28;19920;-63
2023/11/19 03:01:53;;;;;;;;;;;;;;;;;;5054420;28;19924;-64
2023/11/19 03:04:20;;;;;;;;;;;;;;;;;;5054484;28;19935;-63
2023/11/19 03:06:46;;;;;;;;;;;;;;;;;;5055038;28;19921;-64
2023/11/19 03:09:13;;;;;;;;;;;;;;;;;;5054825;28;19931;-63
2023/11/19 03:11:39;;;;;;;;;;;;;;;;;;5054949;28;19921;-63
2023/11/19 03:14:07;;;;;;;;;;;;;;;;;;5053906;28;19921;-64
2023/11/19 03:16:34;;;;;;;;;;;;;;;;;;5054768;28;19928;-63
2023/11/19 03:19:01;;;;;;;;;;;;;;;;;;5054272;28;19920;-63
2023/11/19 03:21:27;;;;;;;;;;;;;;;;;;5054819;28;19944;-63
2023/11/19 03:23:54;;;;;;;;;;;;;;;;;;5054608;28;19921;-63
2023/11/19 03:26:20;;;;;;;;;;;;;;;;;;5054685;28;19928;-64
2023/11/19 03:28:47;;;;;;;;;;;;;;;;;;5053901;28;19943;-63
2023/11/19 03:31:13;;;;;;;;;;;;;;;;;;5054512;28;19932;-63
2023/11/19 03:33:40;;;;;;;;;;;;;;;;;;5054453;28;20378;-63
2023/11/19 03:36:07;;;;;;;;;;;;;;;;;;5054427;28;19921;-63
2023/11/19 03:38:33;;;;;;;;;;;;;;;;;;5054259;28;19924;-63
2023/11/19 03:41:00;;;;;;;;;;;;;;;;;;5054172;28;19928;-63
2023/11/19 03:43:27;;;;;;;;;;;;;;;;;;5053361;28;20293;-63
2023/11/19 03:45:53;;;;;;;;;;;;;;;;;;5054185;28;19924;-63
2023/11/19 03:48:20;;;;;;;;;;;;;;;;;;5053725;28;19921;-64
2023/11/19 03:50:46;;;;;;;;;;;;;;;;;;5053928;28;19927;-63
2023/11/19 03:53:13;;;;;;;;;;;;;;;;;;5054130;28;19931;-63
2023/11/19 03:55:38;;;;;;;;;;;;;;;;;;5054075;28;20400;-64
2023/11/19 03:58:05;;;;;;;;;;;;;;;;;;5053307;28;19929;-63
2023/11/19 04:00:31;;;;;;;;;;;;;;;;;;5053254;28;19921;-63
2023/11/19 04:02:58;;;;;;;;;;;;;;;;;;5053695;28;19935;-64
2023/11/19 04:05:24;;;;;;;;;;;;;;;;;;5053624;28;19921;-62
2023/11/19 04:07:51;;;;;;;;;;;;;;;;;;5053502;28;19920;-63
2023/11/19 04:10:18;;;;;;;;;;;;;;;;;;5053576;28;20349;-63
2023/11/19 04:12:44;;;;;;;;;;;;;;;;;;5052335;28;19921;-63
2023/11/19 04:15:11;;;;;;;;;;;;;;;;;;5053131;28;20270;-63
2023/11/19 04:17:38;;;;;;;;;;;;;;;;;;5053008;28;19928;-63
2023/11/19 04:20:04;;;;;;;;;;;;;;;;;;5052938;28;20293;-63
2023/11/19 04:22:31;;;;;;;;;;;;;;;;;;5052981;28;19927;-63
2023/11/19 04:24:57;;;;;;;;;;;;;;;;;;5053211;28;20457;-63
2023/11/19 04:27:24;;;;;;;;;;;;;;;;;;5053200;28;19921;-63
2023/11/19 04:29:50;;;;;;;;;;;;;;;;;;5052569;28;19920;-63
2023/11/19 04:32:17;;;;;;;;;;;;;;;;;;5052938;28;19936;-63
2023/11/19 04:34:43;;;;;;;;;;;;;;;;;;5053199;28;20338;-63
2023/11/19 04:37:10;;;;;;;;;;;;;;;;;;5053240;28;19944;-63
2023/11/19 04:39:36;;;;;;;;;;;;;;;;;;5053037;28;19921;-63
2023/11/19 04:42:04;;;;;;;;;;;;;;;;;;5053134;28;19925;-63
2023/11/19 04:44:30;;;;;;;;;;;;;;;;;;5052178;28;20306;-63
2023/11/19 04:46:57;;;;;;;;;;;;;;;;;;5052578;28;19921;-63
2023/11/19 04:49:23;;;;;;;;;;;;;;;;;;5052877;28;19925;-63
2023/11/19 04:51:50;;;;;;;;;;;;;;;;;;5052640;28;19935;-63
2023/11/19 04:54:17;;;;;;;;;;;;;;;;;;5053098;28;19927;-64
2023/11/19 04:56:43;;;;;;;;;;;;;;;;;;5053155;28;19932;-63
2023/11/19 04:59:09;;;;;;;;;;;;;;;;;;5051620;28;20398;-63
2023/11/19 05:01:36;;;;;;;;;;;;;;;;;;5053150;28;19928;-64
2023/11/19 05:04:03;;;;;;;;;;;;;;;;;;5052781;28;20039;-64
2023/11/19 05:06:30;;;;;;;;;;;;;;;;;;5052941;28;19928;-63
2023/11/19 05:08:56;;;;;;;;;;;;;;;;;;5052733;28;19928;-64
2023/11/19 05:11:22;;;;;;;;;;;;;;;;;;5053732;28;19928;-63
2023/11/19 05:13:50;;;;;;;;;;;;;;;;;;5056304;28;19944;-63
2023/11/19 05:16:17;;;;;;;;;;;;;;;;;;5056891;28;19937;-64
2023/11/19 05:18:43;;;;;;;;;;;;;;;;;;5056668;28;19924;-64
2023/11/19 05:21:10;;;;;;;;;;;;;;;;;;5056298;28;19921;-63
2023/11/19 05:23:37;;;;;;;;;;;;;;;;;;5056520;28;20377;-63
2023/11/19 05:26:03;;;;;;;;;;;;;;;;;;5056665;28;19924;-63
2023/11/19 05:28:30;;;;;;;;;;;;;;;;;;5055486;28;19944;-63
2023/11/19 05:30:56;;;;;;;;;;;;;;;;;;5056520;28;19922;-63
2023/11/19 05:33:23;;;;;;;;;;;;;;;;;;5056407;28;19920;-63
2023/11/19 05:35:49;;;;;;;;;;;;;;;;;;5056186;28;19920;-63
2023/11/19 05:38:15;;;;;;;;;;;;;;;;;;5056245;28;19928;-63
2023/11/19 05:40:45;;;;;;;;;;;;;;;;;;5056236;28;19936;-63
2023/11/19 05:43:11;;;;;;;;;;;;;;;;;;5055164;28;19921;-63
2023/11/19 05:45:38;;;;;;;;;;;;;;;;;;5056172;28;19920;-62
2023/11/19 05:48:05;;;;;;;;;;;;;;;;;;5055980;28;19951;-62
2023/11/19 05:50:31;;;;;;;;;;;;;;;;;;5056286;28;19921;-62
2023/11/19 05:52:58;;;;;;;;;;;;;;;;;;5055984;28;19921;-62
2023/11/19 05:55:24;;;;;;;;;;;;;;;;;;5056210;28;19921;-62
2023/11/19 05:57:51;;;;;;;;;;;;;;;;;;5055057;28;19920;-62
2023/11/19 06:00:18;;;;;;;;;;;;;;;;;;5055695;28;19920;-62
2023/11/19 06:02:44;;;;;;;;;;;;;;;;;;5055663;28;19935;-62
2023/11/19 06:05:11;;;;;;;;;;;;;;;;;;5055847;28;20282;-62
2023/11/19 06:07:39;;;;;;;;;;;;;;;;;;5055850;28;19921;-62
2023/11/19 06:10:05;;;;;;;;;;;;;;;;;;5055488;28;19921;-62
2023/11/19 06:12:33;;;;;;;;;;;;;;;;;;5054486;28;20543;-61
2023/11/19 06:15:00;;;;;;;;;;;;;;;;;;5055314;28;19920;-62
2023/11/19 06:17:26;;;;;;;;;;;;;;;;;;5055585;28;20297;-61
2023/11/19 06:19:53;;;;;;;;;;;;;;;;;;5055227;28;19940;-61
2023/11/19 06:22:19;;;;;;;;;;;;;;;;;;5054618;28;20376;-61
2023/11/19 06:24:46;;;;;;;;;;;;;;;;;;5055477;28;20389;-62
2023/11/19 06:27:12;;;;;;;;;;;;;;;;;;5054510;28;19920;-61
2023/11/19 06:29:40;;;;;;;;;;;;;;;;;;5055390;28;20258;-61
2023/11/19 06:32:07;;;;;;;;;;;;;;;;;;5055301;28;19928;-62
2023/11/19 06:34:34;;;;;;;;;;;;;;;;;;5054734;28;20341;-61
2023/11/19 06:37:02;;;;;;;;;;;;;;;;;;5055402;28;19927;-62
2023/11/19 06:39:29;;;;;;;;;;;;;;;;;;5055118;28;19920;-61
2023/11/19 06:41:56;;;;;;;;;;;;;;;;;;5054507;28;19932;-62
2023/11/19 06:44:22;;;;;;;;;;;;;;;;;;5054773;28;19920;-62
2023/11/19 06:46:49;;;;;;;;;;;;;;;;;;5055043;28;19921;-62
2023/11/19 06:49:16;;;;;;;;;;;;;;;;;;5054713;28;19927;-62
2023/11/19 06:51:43;;;;;;;;;;;;;;;;;;5055198;28;20407;-62
2023/11/19 06:54:10;;;;;;;;;;;;;;;;;;5054839;28;19928;-62
2023/11/19 06:56:37;;;;;;;;;;;;;;;;;;5054475;28;20042;-63
2023/11/19 06:59:03;;;;;;;;;;;;;;;;;;5054418;28;19924;-61
2023/11/19 07:01:30;;;;;;;;;;;;;;;;;;5054544;28;19928;-62
2023/11/19 07:03:57;;;;;;;;;;;;;;;;;;5054788;28;19928;-61
2023/11/19 07:06:24;;;;;;;;;;;;;;;;;;5054601;28;19932;-62
2023/11/19 07:08:50;;;;;;;;;;;;;;;;;;5054330;28;19932;-61
2023/11/19 07:11:17;;;;;;;;;;;;;;;;;;5054515;28;19920;-61
2023/11/19 07:13:45;;;;;;;;;;;;;;;;;;5052996;28;19920;-61
2023/11/19 07:16:12;;;;;;;;;;;;;;;;;;5054341;28;19920;-62
2023/11/19 07:18:39;;;;;;;;;;;;;;;;;;5054023;28;19921;-62
2023/11/19 07:21:06;;;;;;;;;;;;;;;;;;5054414;28;20006;-61
2023/11/19 07:23:33;;;;;;;;;;;;;;;;;;5054006;28;19928;-61
2023/11/19 07:25:59;;;;;;;;;;;;;;;;;;5054062;28;19931;-61
2023/11/19 07:28:26;;;;;;;;;;;;;;;;;;5053264;28;20298;-61
2023/11/19 07:30:52;;;;;;;;;;;;;;;;;;5053936;28;19920;-61
2023/11/19 07:33:21;;;;;;;;;;;;;;;;;;5053130;28;19920;-62
2023/11/19 07:35:48;;;;;;;;;;;;;;;;;;5053308;28;20397;-61
2023/11/19 07:38:15;;;;;;;;;;;;;;;;;;5054135;28;19932;-61
2023/11/19 07:40:41;;;;;;;;;;;;;;;;;;5054004;28;19943;-61
2023/11/19 07:43:08;;;;;;;;;;;;;;;;;;5053150;28;19925;-61
2023/11/19 07:45:34;;;;;;;;;;;;;;;;;;5053956;28;19927;-61
2023/11/19 07:48:01;;;;;;;;;;;;;;;;;;5053277;28;20408;-61
2023/11/19 07:50:28;;;;;;;;;;;;;;;;;;5053576;28;19928;-61
2023/11/19 07:52:54;;;;;;;;;;;;;;;;;;5053534;28;19928;-60
2023/11/19 07:55:20;;;;;;;;;;;;;;;;;;5053453;28;20020;-62
2023/11/19 07:57:47;;;;;;;;;;;;;;;;;;5052580;28;19916;-61
2023/11/19 08:00:13;;;;;;;;;;;;;;;;;;5051802;28;19921;-61
2023/11/19 08:02:39;;;;;;;;;;;;;;;;;;5053170;28;19920;-61
2023/11/19 08:05:06;;;;;;;;;;;;;;;;;;5053325;28;20316;-62
2023/11/19 08:07:32;;;;;;;;;;;;;;;;;;5053654;28;20269;-62
2023/11/19 08:09:59;;;;;;;;;;;;;;;;;;5053325;28;19921;-60
2023/11/19 08:12:26;;;;;;;;;;;;;;;;;;5052603;28;19925;-60
2023/11/19 08:14:53;;;;;;;;;;;;;;;;;;5052390;28;19920;-61
2023/11/19 08:17:19;;;;;;;;;;;;;;;;;;5053348;28;20278;-60
2023/11/19 08:19:46;;;;;;;;;;;;;;;;;;5053291;28;19932;-61
2023/11/19 08:22:12;;;;;;;;;;;;;;;;;;5053038;28;20279;-61
2023/11/19 08:24:39;;;;;;;;;;;;;;;;;;5053208;28;19921;-61
2023/11/19 08:27:05;;;;;;;;;;;;;;;;;;5053023;28;19925;-62
2023/11/19 08:29:32;;;;;;;;;;;;;;;;;;5051731;28;19920;-61
2023/11/19 08:31:58;;;;;;;;;;;;;;;;;;5053346;28;19921;-62
2023/11/19 08:34:25;;;;;;;;;;;;;;;;;;5053080;28;20389;-61
2023/11/19 08:36:53;;;;;;;;;;;;;;;;;;5053339;28;19921;-61
2023/11/19 08:39:19;;;;;;;;;;;;;;;;;;5052847;28;19920;-61
2023/11/19 08:41:47;;;;;;;;;;;;;;;;;;5052941;28;19927;-61
2023/11/19 08:44:13;;;;;;;;;;;;;;;;;;5052649;28;19927;-60
2023/11/19 08:46:40;;;;;;;;;;;;;;;;;;5052949;28;20362;-60
2023/11/19 08:49:08;;;;;;;;;;;;;;;;;;5052620;28;19920;-61
2023/11/19 08:51:34;;;;;;;;;;;;;;;;;;5053240;28;19920;-60
2023/11/19 08:54:01;;;;;;;;;;;;;;;;;;5052865;28;19921;-60
2023/11/19 08:56:31;;;;;;;;;;;;;;;;;;5052706;28;19920;-61
2023/11/19 08:58:58;;;;;;;;;;;;;;;;;;5052078;28;19927;-61
2023/11/19 09:01:25;;;;;;;;;;;;;;;;;;5052505;28;19921;-60
2023/11/19 09:03:51;;;;;;;;;;;;;;;;;;5052555;28;19927;-61
2023/11/19 09:06:18;;;;;;;;;;;;;;;;;;5052876;28;19928;-61
2023/11/19 09:08:44;;;;;;;;;;;;;;;;;;5052482;28;19921;-61
2023/11/19 09:11:11;;;;;;;;;;;;;;;;;;5052540;28;20353;-60
2023/11/19 09:13:38;;;;;;;;;;;;;;;;;;5050671;28;19928;-61
2023/11/19 09:16:04;;;;;;;;;;;;;;;;;;5050657;28;19921;-60
2023/11/19 09:18:31;;;;;;;;;;;;;;;;;;5051145;28;19921;-62
2023/11/19 09:20:58;;;;;;;;;;;;;;;;;;5050610;28;19920;-62
2023/11/19 09:23:25;;;;;;;;;;;;;;;;;;5050034;28;19927;-46
2023/11/19 09:25:51;;;;;;;;;;;;;;;;;;5049682;28;19920;-61
2023/11/19 09:28:17;;;;;;;;;;;;;;;;;;5050826;28;20305;-61
2023/11/19 09:30:44;;;;;;;;;;;;;;;;;;5054248;28;20286;-62
2023/11/19 09:33:10;;;;;;;;;;;;;;;;;;5047314;28;19928;-61
2023/11/19 09:35:37;;;;;;;;;;;;;;;;;;5051866;28;19932;-61
2023/11/19 09:38:05;;;;;;;;;;;;;;;;;;5050561;28;19921;-61
2023/11/19 09:40:31;;;;;;;;;;;;;;;;;;5051720;28;20258;-61
2023/11/19 09:42:58;;;;;;;;;;;;;;;;;;5050811;28;19921;-61
2023/11/19 09:45:25;;;;;;;;;;;;;;;;;;5051803;28;19920;-61
2023/11/19 09:47:52;;;;;;;;;;;;;;;;;;5056030;28;19920;-61
2023/11/19 09:50:19;;;;;;;;;;;;;;;;;;5051091;28;19920;-62
2023/11/19 09:52:45;;;;;;;;;;;;;;;;;;5050325;28;19920;-61
2023/11/19 09:55:12;;;;;;;;;;;;;;;;;;5050794;28;19921;-61
2023/11/19 09:57:38;;;;;;;;;;;;;;;;;;5052591;28;19921;-61
2023/11/19 10:00:07;;;;;;;;;;;;;;;;;;5054967;28;19920;-61
2023/11/19 10:02:33;;;;;;;;;;;;;;;;;;5049447;28;20358;-61
2023/11/19 10:05:00;;;;;;;;;;;;;;;;;;5047740;28;19920;-61
2023/11/19 10:07:27;;;;;;;;;;;;;;;;;;5055393;28;19921;-61
2023/11/19 10:09:53;;;;;;;;;;;;;;;;;;5054766;28;19936;-61
2023/11/19 10:12:20;;;;;;;;;;;;;;;;;;5054426;28;19921;-61
2023/11/19 10:14:46;;;;;;;;;;;;;;;;;;5054658;28;19920;-62
2023/11/19 10:17:13;;;;;;;;;;;;;;;;;;5054978;28;19920;-61
2023/11/19 10:19:39;;;;;;;;;;;;;;;;;;5054283;28;19920;-61
2023/11/19 10:22:06;;;;;;;;;;;;;;;;;;5054847;28;19935;-62
2023/11/19 10:24:33;;;;;;;;;;;;;;;;;;5054051;28;19921;-62
2023/11/19 10:26:59;;;;;;;;;;;;;;;;;;5054727;28;19921;-61
2023/11/19 10:29:25;;;;;;;;;;;;;;;;;;5053509;28;19921;-61
2023/11/19 10:31:52;;;;;;;;;;;;;;;;;;5062766;28;20424;-61
2023/11/19 10:34:19;;;;;;;;;;;;;;;;;;5054155;28;19928;-61
2023/11/19 10:36:45;;;;;;;;;;;;;;;;;;5053781;28;19944;-43
2023/11/19 10:39:12;;;;;;;;;;;;;;;;;;5054533;28;20019;-43
2023/11/19 10:41:39;;;;;;;;;;;;;;;;;;5052811;28;19928;-43
2023/11/19 10:44:06;;;;;;;;;;;;;;;;;;5053022;28;20279;-43
2023/11/19 10:46:32;;;;;;;;;;;;;;;;;;5054813;28;19927;-47
2023/11/19 10:48:59;;;;;;;;;;;;;;;;;;5052907;28;19920;-44
2023/11/19 10:51:27;;;;;;;;;;;;;;;;;;5053920;28;19924;-44
2023/11/19 10:53:54;;;;;;;;;;;;;;;;;;5057639;28;20301;-44
2023/11/19 10:56:20;;;;;;;;;;;;;;;;;;5049847;28;19921;-44
2023/11/19 10:58:46;;;;;;;;;;;;;;;;;;5042934;28;19923;-43
2023/11/19 11:01:13;;;;;;;;;;;;;;;;;;5054586;28;19921;-43
2023/11/19 11:03:40;;;;;;;;;;;;;;;;;;5062116;28;19921;-43
2023/11/19 11:06:06;;;;;;;;;;;;;;;;;;5063924;28;19921;-63
2023/11/19 11:08:33;;;;;;;;;;;;;;;;;;5061824;28;19927;-63
2023/11/19 11:10:59;;;;;;;;;;;;;;;;;;5063683;28;19921;-63
2023/11/19 11:13:27;;;;;;;;;;;;;;;;;;5061313;28;20269;-63
2023/11/19 11:15:54;;;;;;;;;;;;;;;;;;5054221;28;19921;-63
2023/11/19 11:18:21;;;;;;;;;;;;;;;;;;5052247;28;19921;-63
2023/11/19 11:20:47;;;;;;;;;;;;;;;;;;5056496;28;19921;-63
2023/11/19 11:23:14;;;;;;;;;;;;;;;;;;5054366;28;19928;-63
2023/11/19 11:25:42;;;;;;;;;;;;;;;;;;5061051;28;20365;-62
2023/11/19 11:28:08;;;;;;;;;;;;;;;;;;5045212;28;19925;-63
2023/11/19 11:30:35;;;;;;;;;;;;;;;;;;5055425;28;19921;-63
2023/11/19 11:33:01;;;;;;;;;;;;;;;;;;5056247;28;19928;-64
2023/11/19 11:35:27;;;;;;;;;;;;;;;;;;5055498;28;19925;-64
2023/11/19 11:37:54;;;;;;;;;;;;;;;;;;5057965;28;19929;-63
2023/11/19 11:40:23;;;;;;;;;;;;;;;;;;5055807;28;19928;-64
2023/11/19 11:42:50;;;;;;;;;;;;;;;;;;5052366;28;19920;-63
2023/11/19 11:45:17;;;;;;;;;;;;;;;;;;5054267;28;20003;-64
2023/11/19 11:47:43;;;;;;;;;;;;;;;;;;5062196;28;19927;-64
2023/11/19 11:50:09;;;;;;;;;;;;;;;;;;5065400;28;19916;-63
2023/11/19 11:52:35;;;;;;;;;;;;;;;;;;5057578;28;19927;-63
2023/11/19 11:55:03;;;;;;;;;;;;;;;;;;5053654;28;19927;-64
2023/11/19 11:57:29;;;;;;;;;;;;;;;;;;5059087;28;19920;-64
2023/11/19 11:59:56;;;;;;;;;;;;;;;;;;5050349;28;19928;-64
2023/11/19 12:02:22;;;;;;;;;;;;;;;;;;5054641;28;19921;-63
2023/11/19 12:04:49;;;;;;;;;;;;;;;;;;5061209;28;19947;-63
2023/11/19 12:07:15;;;;;;;;;;;;;;;;;;5071790;28;19920;-63
2023/11/19 12:09:42;;;;;;;;;;;;;;;;;;5064447;28;19927;-64
2023/11/19 12:12:08;;;;;;;;;;;;;;;;;;5058998;28;19924;-63
2023/11/19 12:14:35;;;;;;;;;;;;;;;;;;5049517;28;19927;-63
2023/11/19 12:17:02;;;;;;;;;;;;;;;;;;5064841;28;19935;-64
2023/11/19 12:19:28;;;;;;;;;;;;;;;;;;5050739;28;19929;-62
2023/11/19 12:21:54;;;;;;;;;;;;;;;;;;5049670;28;20381;-61
2023/11/19 12:24:21;;;;;;;;;;;;;;;;;;5052919;28;19928;-61
2023/11/19 12:26:49;;;;;;;;;;;;;;;;;;5054443;28;19946;-66
2023/11/19 12:29:16;;;;;;;;;;;;;;;;;;5051944;28;20065;-63
2023/11/19 12:31:42;;;;;;;;;;;;;;;;;;5049143;28;19921;-63
2023/11/19 12:34:11;;;;;;;;;;;;;;;;;;5053842;28;20319;-61
2023/11/19 12:36:38;;;;;;;;;;;;;;;;;;5055780;28;19921;-62
2023/11/19 12:39:04;;;;;;;;;;;;;;;;;;5051307;28;19921;-62
2023/11/19 12:41:31;;;;;;;;;;;;;;;;;;5051253;28;19931;-61
2023/11/19 12:43:57;;;;;;;;;;;;;;;;;;5058884;28;19921;-62
2023/11/19 12:46:24;;;;;;;;;;;;;;;;;;5055899;28;19928;-61
2023/11/19 12:48:50;;;;;;;;;;;;;;;;;;5050611;28;19921;-65
2023/11/19 12:51:17;;;;;;;;;;;;;;;;;;5052244;28;20006;-63
2023/11/19 12:53:43;;;;;;;;;;;;;;;;;;5051993;28;19928;-63
2023/11/19 12:56:12;;;;;;;;;;;;;;;;;;5053858;28;19928;-62
2023/11/19 12:58:41;;;;;;;;;;;;;;;;;;5051387;28;19925;-62
2023/11/19 13:01:08;;;;;;;;;;;;;;;;;;5057664;28;19920;-63
2023/11/19 13:03:35;;;;;;;;;;;;;;;;;;5063647;28;19920;-64
2023/11/19 13:06:01;;;;;;;;;;;;;;;;;;5065383;28;19920;-63
2023/11/19 13:08:28;;;;;;;;;;;;;;;;;;5059328;28;19921;-61
2023/11/19 13:10:54;;;;;;;;;;;;;;;;;;5058911;28;19920;-63
2023/11/19 13:13:21;;;;;;;;;;;;;;;;;;5064806;28;20292;-61
2023/11/19 13:15:48;;;;;;;;;;;;;;;;;;5071631;28;19939;-63
2023/11/19 13:18:14;;;;;;;;;;;;;;;;;;5062992;28;19928;-63
2023/11/19 13:20:41;;;;;;;;;;;;;;;;;;5041389;28;19921;-62
2023/11/19 13:23:07;;;;;;;;;;;;;;;;;;5054053;28;20404;-62
2023/11/19 13:25:34;;;;;;;;;;;;;;;;;;5038608;28;19969;-62
2023/11/19 13:28:00;;;;;;;;;;;;;;;;;;5048921;28;19921;-63
2023/11/19 13:30:27;;;;;;;;;;;;;;;;;;5042569;28;20358;-62
2023/11/19 13:32:54;;;;;;;;;;;;;;;;;;5043807;28;19924;-62
2023/11/19 13:35:21;;;;;;;;;;;;;;;;;;5048087;28;19936;-62
2023/11/19 13:37:47;;;;;;;;;;;;;;;;;;5035247;28;19929;-62
2023/11/19 13:40:15;;;;;;;;;;;;;;;;;;5045467;28;19928;-62
2023/11/19 13:42:41;;;;;;;;;;;;;;;;;;5048356;28;19925;-62
2023/11/19 13:45:10;;;;;;;;;;;;;;;;;;5050040;28;19928;-62
2023/11/19 13:47:37;;;;;;;;;;;;;;;;;;5046223;28;20024;-62
2023/11/19 13:50:06;;;;;;;;;;;;;;;;;;5051266;28;19943;-62
2023/11/19 13:52:33;;;;;;;;;;;;;;;;;;5049331;28;19921;-62
2023/11/19 13:54:59;;;;;;;;;;;;;;;;;;5060107;28;20286;-62
2023/11/19 13:57:25;;;;;;;;;;;;;;;;;;5064372;28;19920;-62
2023/11/19 13:59:52;;;;;;;;;;;;;;;;;;5066595;28;19921;-62
2023/11/19 14:02:18;;;;;;;;;;;;;;;;;;5057092;28;19928;-62
2023/11/19 14:04:45;;;;;;;;;;;;;;;;;;5063285;28;20298;-63
2023/11/19 14:07:11;;;;;;;;;;;;;;;;;;5059814;28;19920;-63
2023/11/19 14:09:38;;;;;;;;;;;;;;;;;;5067118;28;19921;-63
2023/11/19 14:12:04;;;;;;;;;;;;;;;;;;5065350;28;19928;-63
2023/11/19 14:14:31;;;;;;;;;;;;;;;;;;5069290;28;20286;-62
2023/11/19 14:16:57;;;;;;;;;;;;;;;;;;5064601;28;19929;-62
2023/11/19 14:19:24;;;;;;;;;;;;;;;;;;5065403;28;19920;-62
2023/11/19 14:21:50;;;;;;;;;;;;;;;;;;5067317;28;19924;-62
2023/11/19 14:24:17;;;;;;;;;;;;;;;;;;5063475;28;20313;-62
2023/11/19 14:26:43;;;;;;;;;;;;;;;;;;5056173;28;19920;-62
2023/11/19 14:29:09;;;;;;;;;;;;;;;;;;5069648;28;19924;-62
2023/11/19 14:31:36;;;;;;;;;;;;;;;;;;5057550;28;19921;-63
2023/11/19 14:34:02;;;;;;;;;;;;;;;;;;5061355;28;19927;-62
2023/11/19 14:36:29;;;;;;;;;;;;;;;;;;5064899;28;19920;-62
2023/11/19 14:38:57;;;;;;;;;;;;;;;;;;5062357;28;20266;-62
2023/11/19 14:41:24;;;;;;;;;;;;;;;;;;5063399;28;19921;-62
2023/11/19 14:43:50;;;;;;;;;;;;;;;;;;5067706;28;19925;-62
2023/11/19 14:46:17;;;;;;;;;;;;;;;;;;5061111;28;19928;-62
2023/11/19 14:48:43;;;;;;;;;;;;;;;;;;5067373;28;19920;-62
2023/11/19 14:51:10;;;;;;;;;;;;;;;;;;5058185;28;19924;-62
2023/11/19 14:53:36;;;;;;;;;;;;;;;;;;5060219;28;19928;-62
2023/11/19 14:56:04;;;;;;;;;;;;;;;;;;5064730;28;19921;-62
2023/11/19 14:58:31;;;;;;;;;;;;;;;;;;5058370;28;19924;-63
2023/11/19 15:00:57;;;;;;;;;;;;;;;;;;5060637;28;19939;-62
2023/11/19 15:03:24;;;;;;;;;;;;;;;;;;5060045;28;19943;-63
2023/11/19 15:05:50;;;;;;;;;;;;;;;;;;5056941;28;19932;-62
2023/11/19 15:08:17;;;;;;;;;;;;;;;;;;5068458;28;19921;-63
2023/11/19 15:10:44;;;;;;;;;;;;;;;;;;5065933;28;20292;-62
2023/11/19 15:13:11;;;;;;;;;;;;;;;;;;5064977;28;20297;-62
2023/11/19 15:15:38;;;;;;;;;;;;;;;;;;5059151;28;19928;-62
2023/11/19 15:18:05;;;;;;;;;;;;;;;;;;5063714;28;19978;-62
2023/11/19 15:20:31;;;;;;;;;;;;;;;;;;5063525;28;19921;-68
2023/11/19 15:22:58;;;;;;;;;;;;;;;;;;5061313;28;19969;-62
2023/11/19 15:25:24;;;;;;;;;;;;;;;;;;5058309;28;20435;-62
2023/11/19 15:27:51;;;;;;;;;;;;;;;;;;5057556;28;19924;-63
2023/11/19 15:30:17;;;;;;;;;;;;;;;;;;5057853;28;19920;-62
2023/11/19 15:32:43;;;;;;;;;;;;;;;;;;5059026;28;19927;-62
2023/11/19 15:35:10;;;;;;;;;;;;;;;;;;5061807;28;19928;-63
2023/11/19 15:37:37;;;;;;;;;;;;;;;;;;5055625;28;19921;-63
2023/11/19 15:40:06;;;;;;;;;;;;;;;;;;5053953;28;20389;-64
2023/11/19 15:42:32;;;;;;;;;;;;;;;;;;5054085;28;20384;-62
2023/11/19 15:44:59;;;;;;;;;;;;;;;;;;5063494;28;19928;-62
2023/11/19 15:47:25;;;;;;;;;;;;;;;;;;5053917;28;19928;-62
2023/11/19 15:49:51;;;;;;;;;;;;;;;;;;5064196;28;19928;-62
2023/11/19 15:52:18;;;;;;;;;;;;;;;;;;5055086;28;19921;-63
2023/11/19 15:54:47;;;;;;;;;;;;;;;;;;5062496;28;19920;-63
2023/11/19 15:57:13;;;;;;;;;;;;;;;;;;5063927;28;19920;-61
2023/11/19 15:59:40;;;;;;;;;;;;;;;;;;5059169;28;20399;-62
2023/11/19 16:02:06;;;;;;;;;;;;;;;;;;5053962;28;19920;-62
2023/11/19 16:04:33;;;;;;;;;;;;;;;;;;5056394;28;19925;-62
2023/11/19 16:06:59;;;;;;;;;;;;;;;;;;5055726;28;19927;-62
2023/11/19 16:09:28;;;;;;;;;;;;;;;;;;5052909;28;19927;-62
2023/11/19 16:11:54;;;;;;;;;;;;;;;;;;5061233;28;19920;-63
2023/11/19 16:14:21;;;;;;;;;;;;;;;;;;5053158;28;20388;-61
2023/11/19 16:16:47;;;;;;;;;;;;;;;;;;5053061;28;19928;-62
2023/11/19 16:19:14;;;;;;;;;;;;;;;;;;5059834;28;19921;-62
2023/11/19 16:21:40;;;;;;;;;;;;;;;;;;5061556;28;19921;-62
2023/11/19 16:24:07;;;;;;;;;;;;;;;;;;5064541;28;19920;-62
2023/11/19 16:26:36;;;;;;;;;;;;;;;;;;5067211;28;19921;-63
2023/11/19 16:29:02;;;;;;;;;;;;;;;;;;5068259;28;20412;-62
2023/11/19 16:31:29;;;;;;;;;;;;;;;;;;5067064;28;19943;-62
2023/11/19 16:33:55;;;;;;;;;;;;;;;;;;5060665;28;19921;-62
2023/11/19 16:36:23;;;;;;;;;;;;;;;;;;5060107;28;19920;-62
2023/11/19 16:38:49;;;;;;;;;;;;;;;;;;5061002;28;19920;-62
2023/11/19 16:41:16;;;;;;;;;;;;;;;;;;5060261;28;19927;-63